createdAt,value
2019-01-27T00:01:17.221Z,66.15
2019-01-27T00:06:29.596Z,66.38
2019-01-27T00:11:35.388Z,66.14
2019-01-27T00:16:41.411Z,65.96
2019-01-27T00:21:48.089Z,65.40
2019-01-27T00:26:55.839Z,66.04
2019-01-27T00:32:04.185Z,65.54
2019-01-27T00:37:11.432Z,65.44
2019-01-27T00:42:18.823Z,64.92
2019-01-27T00:47:25.534Z,65.80
2019-01-27T00:52:33.560Z,65.80
2019-01-27T00:57:41.300Z,65.18
2019-01-27T01:02:47.550Z,65.01
2019-01-27T01:07:54.839Z,64.33
2019-01-27T01:13:02.277Z,64.99
2019-01-27T01:18:10.773Z,64.53
2019-01-27T01:23:16.667Z,64.27
2019-01-27T01:28:23.670Z,63.98
2019-01-27T01:33:29.898Z,64.10
2019-01-27T01:38:36.407Z,64.60
2019-01-27T01:49:01.272Z,63.96
2019-01-27T01:54:08.456Z,64.26
2019-01-27T01:59:19.048Z,63.17
2019-01-27T02:04:26.015Z,63.35
2019-01-27T02:09:35.189Z,63.72
2019-01-27T02:14:42.383Z,63.71
2019-01-27T02:19:51.726Z,63.87
2019-01-27T02:24:59.148Z,63.91
2019-01-27T02:30:10.560Z,64.26
2019-01-27T02:35:18.547Z,64.05
2019-01-27T02:40:27.373Z,64.12
2019-01-27T02:45:35.920Z,64.06
2019-01-27T02:50:44.373Z,63.56
2019-01-27T02:55:54.759Z,64.17
2019-01-27T03:01:08.047Z,63.35
2019-01-27T03:06:17.419Z,63.62
2019-01-27T03:11:24.506Z,63.52
2019-01-27T03:16:34.183Z,63.32
2019-01-27T03:21:43.062Z,63.12
2019-01-27T03:26:51.381Z,62.86
2019-01-27T03:32:00.391Z,63.62
2019-01-27T03:37:08.439Z,62.75
2019-01-27T03:42:15.207Z,63.73
2019-01-27T03:47:21.723Z,62.89
2019-01-27T03:52:28.855Z,62.48
2019-01-27T03:57:35.964Z,62.22
2019-01-27T04:02:43.674Z,62.63
2019-01-27T04:07:50.899Z,62.01
2019-01-27T04:12:57.947Z,62.47
2019-01-27T04:18:04.765Z,61.80
2019-01-27T04:23:13.454Z,62.20
2019-01-27T04:28:22.096Z,62.13
2019-01-27T04:33:29.978Z,61.95
2019-01-27T04:38:38.579Z,62.19
2019-01-27T04:43:47.263Z,62.46
2019-01-27T04:48:57.212Z,62.19
2019-01-27T04:54:07.534Z,62.50
2019-01-27T04:59:18.464Z,61.76
2019-01-27T05:04:28.519Z,61.83
2019-01-27T05:09:36.443Z,61.83
2019-01-27T05:14:46.540Z,61.38
2019-01-27T05:19:59.163Z,62.02
2019-01-27T05:30:53.376Z,61.78
2019-01-27T05:36:00.611Z,62.46
2019-01-27T05:41:08.605Z,62.13
2019-01-27T05:46:19.992Z,62.10
2019-01-27T05:51:28.014Z,61.65
2019-01-27T05:56:35.326Z,61.82
2019-01-27T06:01:43.668Z,61.50
2019-01-27T06:06:51.966Z,61.55
2019-01-27T06:18:07.735Z,61.06
2019-01-27T06:40:54.603Z,61.94
2019-01-27T06:46:04.360Z,61.97
2019-01-27T06:51:29.042Z,61.27
2019-01-27T06:56:50.711Z,61.82
2019-01-27T07:07:55.325Z,61.29
2019-01-27T07:13:08.665Z,61.77
2019-01-27T07:18:16.225Z,61.29
2019-01-27T07:23:37.371Z,61.21
2019-01-27T07:28:53.693Z,61.30
2019-01-27T07:34:07.567Z,61.58
2019-01-27T07:39:20.438Z,60.94
2019-01-27T07:44:34.137Z,60.22
2019-01-27T07:49:58.061Z,60.42
2019-01-27T07:55:06.563Z,60.57
2019-01-27T08:00:22.389Z,61.31
2019-01-27T08:05:39.070Z,60.86
2019-01-27T08:10:46.525Z,60.73
2019-01-27T08:16:02.833Z,61.11
2019-01-27T08:21:10.113Z,61.76
2019-01-27T08:26:28.805Z,61.75
2019-01-27T08:31:51.893Z,61.00
2019-01-27T08:36:59.242Z,61.30
2019-01-27T08:42:06.741Z,61.43
2019-01-27T08:47:14.633Z,61.06
2019-01-27T08:52:20.419Z,60.77
2019-01-27T08:57:26.141Z,60.92
2019-01-27T09:02:50.089Z,60.76
2019-01-27T09:08:09.836Z,60.71
2019-01-27T09:13:18.145Z,61.75
2019-01-27T09:18:29.959Z,61.89
2019-01-27T09:23:53.119Z,61.21
2019-01-27T09:29:01.178Z,60.89
2019-01-27T09:34:18.029Z,60.49
2019-01-27T09:39:26.123Z,60.60
2019-01-27T09:44:39.189Z,60.75
2019-01-27T09:49:49.498Z,59.74
2019-01-27T09:54:58.699Z,60.03
2019-01-27T10:00:12.218Z,59.31
2019-01-27T10:05:22.514Z,59.02
2019-01-27T10:10:46.000Z,58.98
2019-01-27T10:16:02.968Z,58.68
2019-01-27T10:21:14.815Z,59.24
2019-01-27T10:26:34.294Z,59.31
2019-01-27T10:31:45.529Z,58.44
2019-01-27T10:36:53.962Z,58.22
2019-01-27T10:42:04.520Z,57.40
2019-01-27T10:47:29.101Z,57.75
2019-01-27T10:52:37.207Z,58.48
2019-01-27T10:57:59.701Z,59.25
2019-01-27T11:03:08.441Z,60.03
2019-01-27T11:08:16.119Z,60.60
2019-01-27T11:13:32.422Z,60.91
2019-01-27T11:18:39.952Z,61.19
2019-01-27T11:23:49.969Z,62.27
2019-01-27T11:28:58.971Z,62.24
2019-01-27T11:34:07.389Z,61.50
2019-01-27T11:39:21.434Z,62.50
2019-01-27T11:44:29.102Z,61.92
2019-01-27T11:49:42.922Z,61.48
2019-01-27T11:54:51.119Z,60.88
2019-01-27T11:59:56.675Z,61.29
2019-01-27T12:05:03.429Z,62.09
2019-01-27T12:10:15.140Z,61.58
2019-01-27T12:15:22.529Z,62.00
2019-01-27T12:20:28.385Z,62.35
2019-01-27T12:25:34.788Z,62.43
2019-01-27T12:30:40.581Z,62.50
2019-01-27T12:35:46.522Z,62.55
2019-01-27T12:40:52.554Z,61.79
2019-01-27T12:45:58.660Z,61.93
2019-01-27T12:51:04.936Z,61.76
2019-01-27T12:56:10.503Z,61.60
2019-01-27T13:01:17.762Z,61.25
2019-01-27T13:06:23.736Z,60.87
2019-01-27T13:11:29.496Z,60.53
2019-01-27T13:16:36.280Z,60.10
2019-01-27T13:21:42.349Z,60.37
2019-01-27T13:26:48.579Z,60.21
2019-01-27T13:31:55.073Z,59.19
2019-01-27T13:37:01.274Z,59.44
2019-01-27T13:42:08.757Z,59.18
2019-01-27T13:47:17.219Z,59.95
2019-01-27T13:52:23.903Z,59.31
2019-01-27T13:57:30.306Z,59.49
2019-01-27T14:02:36.586Z,58.68
2019-01-27T14:07:42.948Z,58.89
2019-01-27T14:12:49.422Z,57.89
2019-01-27T14:17:55.290Z,57.20
2019-01-27T14:23:01.665Z,57.45
2019-01-27T14:28:07.615Z,57.25
2019-01-27T14:33:13.729Z,56.92
2019-01-27T14:38:19.861Z,57.53
2019-01-27T14:43:26.616Z,57.66
2019-01-27T14:48:34.493Z,57.65
2019-01-27T14:53:40.273Z,57.49
2019-01-27T14:58:47.749Z,56.64
2019-01-27T15:03:54.548Z,56.09
2019-01-27T15:09:00.532Z,57.76
2019-01-27T15:14:09.055Z,56.50
2019-01-27T15:19:16.355Z,56.33
2019-01-27T15:24:22.099Z,57.18
2019-01-27T15:29:28.337Z,57.75
2019-01-27T15:34:34.111Z,57.96
2019-01-27T15:39:39.994Z,57.45
2019-01-27T15:44:47.004Z,57.49
2019-01-27T15:49:54.598Z,57.95
2019-01-27T15:55:00.815Z,58.40
2019-01-27T16:00:17.520Z,57.96
2019-01-27T16:05:25.418Z,57.99
2019-01-27T16:10:32.393Z,58.45
2019-01-27T16:15:38.850Z,58.08
2019-01-27T16:20:44.963Z,57.60
2019-01-27T16:25:51.056Z,57.90
2019-01-27T16:31:07.901Z,58.29
2019-01-27T16:36:14.944Z,57.90
2019-01-27T16:41:22.370Z,58.02
2019-01-27T16:46:28.455Z,57.61
2019-01-27T16:51:35.155Z,57.68
2019-01-27T16:56:41.654Z,58.08
2019-01-27T17:01:48.314Z,58.58
2019-01-27T17:06:54.024Z,58.38
2019-01-27T17:11:59.688Z,58.42
2019-01-27T17:17:06.851Z,58.49
2019-01-27T17:22:13.017Z,58.23
2019-01-27T17:27:19.372Z,58.37
2019-01-27T17:32:28.597Z,58.44
2019-01-27T17:37:36.476Z,58.39
2019-01-27T17:42:42.910Z,58.71
2019-01-27T17:47:50.619Z,58.81
2019-01-27T17:52:56.894Z,58.88
2019-01-27T17:58:07.313Z,59.30
2019-01-27T18:03:17.329Z,58.92
2019-01-27T18:08:25.474Z,59.34
2019-01-27T18:13:33.728Z,58.89
2019-01-27T18:18:40.325Z,58.99
2019-01-27T18:23:46.760Z,59.12
2019-01-27T18:28:53.405Z,58.77
2019-01-27T18:33:59.214Z,58.25
2019-01-27T18:39:08.330Z,57.77
2019-01-27T18:44:14.233Z,58.06
2019-01-27T18:49:19.978Z,58.18
2019-01-27T18:54:31.070Z,57.72
2019-01-27T18:59:41.689Z,57.99
2019-01-27T19:05:01.222Z,57.72
2019-01-27T19:10:14.898Z,57.66
2019-01-27T19:15:40.653Z,58.52
2019-01-27T19:20:50.189Z,58.37
2019-01-27T19:26:00.407Z,58.22
2019-01-27T19:31:17.541Z,58.17
2019-01-27T19:36:34.318Z,58.24
2019-01-27T19:41:42.879Z,58.63
2019-01-27T19:46:56.408Z,59.23
2019-01-27T19:52:09.553Z,58.90
2019-01-27T19:57:33.274Z,59.08
2019-01-27T20:02:40.942Z,59.22
2019-01-27T20:07:52.144Z,58.81
2019-01-27T20:13:08.616Z,58.77
2019-01-27T20:18:32.400Z,59.04
2019-01-27T20:23:51.818Z,59.62
2019-01-27T20:29:02.270Z,59.55
2019-01-27T20:34:16.140Z,59.98
2019-01-27T20:39:27.646Z,59.64
2019-01-27T20:44:43.902Z,59.96
2019-01-27T20:49:55.479Z,58.55
2019-01-27T20:55:06.060Z,58.87
2019-01-27T21:00:17.165Z,59.47
2019-01-27T21:05:27.094Z,59.52
2019-01-27T21:10:40.502Z,60.30
2019-01-27T21:15:48.384Z,59.80
2019-01-27T21:20:54.171Z,60.14
2019-01-27T21:25:59.990Z,59.77
2019-01-27T21:31:07.074Z,59.62
2019-01-27T21:36:14.032Z,59.96
2019-01-27T21:41:20.373Z,60.53
2019-01-27T21:46:27.298Z,60.42
2019-01-27T21:51:33.446Z,61.33
2019-01-27T21:56:39.145Z,61.00
2019-01-27T22:01:47.705Z,60.62
2019-01-27T22:06:55.356Z,61.34
2019-01-27T22:12:01.061Z,61.57
2019-01-27T22:17:07.004Z,61.69
2019-01-27T22:22:16.189Z,61.76
2019-01-27T22:27:23.316Z,62.06
2019-01-27T22:32:29.731Z,62.29
2019-01-27T22:37:35.449Z,62.59
2019-01-27T22:42:41.632Z,62.40
2019-01-27T22:47:47.757Z,61.91
2019-01-27T22:52:53.690Z,62.66
2019-01-27T22:57:59.409Z,62.55
2019-01-27T23:03:06.155Z,61.76
2019-01-27T23:08:13.712Z,61.91
2019-01-27T23:13:19.357Z,61.32
2019-01-27T23:18:25.091Z,61.81
2019-01-27T23:23:31.014Z,61.63
2019-01-27T23:28:36.845Z,61.96
2019-01-27T23:33:42.873Z,61.69
2019-01-27T23:38:48.806Z,62.71
2019-01-27T23:43:54.399Z,62.21
2019-01-27T23:49:00.240Z,62.14
2019-01-27T23:54:07.211Z,61.60
2019-01-27T23:59:12.911Z,62.55
